Terminal Aerodrome Forecast
Issued by NWS

Home | Current Version | Previous Version | Graphics & Text | Print | Product List | Glossary On
Versions: 1 2 3 4 5 6 7 8 9 10 11 12 13 14 15 16 17 18 19 20 21 22 23 24 25
000
FTUS43 KLOT 191450 AAA
TAFGYY
TAF AMD
KGYY 191450Z 1915/2012 27009KT P6SM FEW060
     FM191600 04009KT P6SM SCT040 BKN250
     FM200400 14005KT P6SM SCT100 BKN250 PROB30 2006/2012 33015G25KT
      3SM TSRA SCT020 OVC060CB=

USA.gov is the U.S. government's official web portal to all federal, state and local government web resources and services.